Time;durP1;ratioP1;P1;durP2;ratioP2;P2;SDS_P1;SDS_P2;PMS_P1;PMS_P2;Temp;Humidity;BMP_temperature;BMP_pressure;BME280_temperature;BME280_humidity;BME280_pressure;Samples;Min_cycle;Max_cycle;Signal;HPM_P1;HPM_P2
2023/10/15 00:01:53;;;;;;;5.10;1.38;;;11.40;99.90;;;;;;5088317;28;20035;-93
2023/10/15 00:04:19;;;;;;;4.95;1.20;;;11.10;99.90;;;;;;5087113;28;20021;-92
2023/10/15 00:06:45;;;;;;;3.45;1.25;;;11.80;99.90;;;;;;5086928;28;20041;-92
2023/10/15 00:09:13;;;;;;;2.53;1.10;;;12.00;99.90;;;;;;5085649;28;20020;-92
2023/10/15 00:11:40;;;;;;;2.80;0.90;;;11.80;99.90;;;;;;5091220;28;20036;-92
2023/10/15 00:14:06;;;;;;;2.13;0.80;;;11.50;99.90;;;;;;5082974;28;20029;-93
2023/10/15 00:16:33;;;;;;;4.45;1.00;;;10.50;99.90;;;;;;5085086;28;20048;-93
2023/10/15 00:19:04;;;;;;;3.60;0.90;;;11.80;99.90;;;;;;5078052;28;20092;-94
2023/10/15 00:21:30;;;;;;;9.52;1.75;;;10.30;99.90;;;;;;5080900;28;20032;-92
2023/10/15 00:23:56;;;;;;;2.75;1.00;;;10.90;99.90;;;;;;5076330;28;20047;-93
2023/10/15 00:26:22;;;;;;;1.92;1.00;;;11.40;99.90;;;;;;5065838;28;20025;-93
2023/10/15 00:28:48;;;;;;;3.72;0.80;;;11.10;99.90;;;;;;5062854;28;20035;-93
2023/10/15 00:31:14;;;;;;;4.03;1.42;;;10.60;99.90;;;;;;5076245;28;20069;-93
2023/10/15 00:33:46;;;;;;;5.85;1.23;;;11.50;99.90;;;;;;5072468;28;20099;-95
2023/10/15 00:36:13;;;;;;;4.38;1.30;;;11.60;99.90;;;;;;5064507;28;20013;-93
2023/10/15 00:38:43;;;;;;;4.03;1.20;;;11.80;99.90;;;;;;5094405;28;20031;-93
2023/10/15 00:41:10;;;;;;;2.95;0.98;;;11.10;99.90;;;;;;5092217;28;20040;-93
2023/10/15 00:43:36;;;;;;;4.20;0.93;;;10.60;99.90;;;;;;5075834;28;20036;-95
2023/10/15 00:46:27;;;;;;;3.83;1.00;;;10.80;99.90;;;;;;5087747;28;20120;-94
2023/10/15 00:49:09;;;;;;;5.65;1.35;;;10.50;99.90;;;;;;5067413;28;20029;-95
2023/10/15 00:51:40;;;;;;;1.65;1.02;;;9.90;99.90;;;;;;5084108;28;20044;-94
2023/10/15 00:54:11;;;;;;;5.43;2.20;;;11.00;99.90;;;;;;5084103;28;20377;-94
2023/10/15 00:56:39;;;;;;;4.78;1.55;;;10.70;99.90;;;;;;5092791;28;20021;-94
2023/10/15 00:59:45;;;;;;;3.10;1.50;;;10.70;99.90;;;;;;5094235;28;20024;-95
2023/10/15 01:02:23;;;;;;;5.47;3.00;;;10.50;99.90;;;;;;5082438;28;20016;-94
2023/10/15 01:04:53;;;;;;;3.83;1.75;;;10.30;99.90;;;;;;5085273;28;20025;-95
2023/10/15 01:07:51;;;;;;;4.30;2.67;;;10.80;99.90;;;;;;5077991;28;20539;-95
2023/10/15 01:10:44;;;;;;;9.38;3.20;;;11.20;99.90;;;;;;5087850;28;20040;-95
2023/10/15 01:13:24;;;;;;;6.35;2.47;;;10.90;99.90;;;;;;5059690;28;20048;-95
2023/10/15 01:15:59;;;;;;;4.45;1.52;;;10.90;99.90;;;;;;5068539;28;20045;-94
2023/10/15 01:18:25;;;;;;;3.55;1.80;;;10.90;99.90;;;;;;5061142;28;20033;-94
2023/10/15 01:20:53;;;;;;;2.40;1.38;;;9.80;99.90;;;;;;5070607;28;20017;-95
2023/10/15 01:26:17;;;;;;;2.63;0.90;;;11.90;99.90;;;;;;5080856;28;20040;-95
2023/10/15 01:28:45;;;;;;;2.65;0.90;;;10.70;99.90;;;;;;5091441;28;20033;-95
2023/10/15 01:31:15;;;;;;;5.20;1.10;;;11.80;99.90;;;;;;5099426;28;20089;-95
2023/10/15 01:33:49;;;;;;;3.78;1.02;;;10.60;99.90;;;;;;5098737;28;20028;-92
2023/10/15 01:36:27;;;;;;;3.90;1.00;;;11.00;99.90;;;;;;5079829;28;20017;-92
2023/10/15 01:38:56;;;;;;;7.25;1.05;;;11.80;99.90;;;;;;5074972;28;20044;-94
2023/10/15 01:41:25;;;;;;;5.07;2.97;;;9.50;99.90;;;;;;5061681;28;20584;-94
2023/10/15 01:44:10;;;;;;;5.18;1.65;;;10.20;99.90;;;;;;5063383;28;20085;-95
2023/10/15 01:49:32;;;;;;;2.80;1.10;;;10.80;99.90;;;;;;5073323;28;20048;-95
2023/10/15 01:52:06;;;;;;;2.42;0.70;;;10.50;99.90;;;;;;5068185;28;20103;-90
2023/10/15 01:54:45;;;;;;;1.20;0.88;;;11.70;99.90;;;;;;5050614;28;20037;-93
2023/10/15 01:57:14;;;;;;;2.90;0.70;;;11.30;99.90;;;;;;5073733;28;20017;-95
2023/10/15 02:02:58;;;;;;;1.95;0.73;;;10.50;99.90;;;;;;5045779;28;20335;-93
2023/10/15 02:05:41;;;;;;;3.42;0.77;;;10.60;99.90;;;;;;5074873;28;20041;-93
2023/10/15 02:08:27;;;;;;;1.77;0.80;;;10.60;99.90;;;;;;5053135;28;20037;-94
2023/10/15 02:13:45;;;;;;;0.63;0.50;;;10.60;99.90;;;;;;5089922;28;20036;-93
2023/10/15 02:19:40;;;;;;;4.03;0.73;;;10.60;99.90;;;;;;5065647;28;20033;-95
2023/10/15 02:22:07;;;;;;;2.22;0.57;;;11.90;99.90;;;;;;5077294;28;20032;-94
2023/10/15 02:24:46;;;;;;;2.78;0.60;;;11.70;99.90;;;;;;5076636;28;20434;-95
2023/10/15 02:27:25;;;;;;;1.40;0.77;;;10.80;99.90;;;;;;5076203;28;20031;-94
2023/10/15 02:30:07;;;;;;;3.20;0.70;;;11.30;99.90;;;;;;5076472;28;20107;-94
2023/10/15 02:32:33;;;;;;;3.60;1.02;;;10.70;99.90;;;;;;5091276;28;20037;-94
2023/10/15 02:35:12;;;;;;;1.73;0.70;;;11.70;99.90;;;;;;5090520;28;20024;-94
2023/10/15 02:37:47;;;;;;;1.58;0.73;;;11.10;99.90;;;;;;5086315;28;20024;-94
2023/10/15 02:40:17;;;;;;;1.15;0.50;;;10.60;99.90;;;;;;5076498;28;20032;-95
2023/10/15 02:42:52;;;;;;;2.53;0.70;;;10.60;99.90;;;;;;5075266;28;20025;-94
2023/10/15 02:45:24;;;;;;;3.17;0.77;;;11.90;99.90;;;;;;5033064;28;20032;-94
2023/10/15 02:48:19;;;;;;;0.82;0.40;;;10.60;99.90;;;;;;5074729;28;20024;-94
2023/10/15 02:51:14;;;;;;;5.35;0.70;;;10.30;99.90;;;;;;5054714;28;20496;-94
2023/10/15 02:53:50;;;;;;;4.50;1.00;;;10.00;99.90;;;;;;5055225;28;20052;-94
2023/10/15 02:56:17;;;;;;;2.50;0.70;;;11.40;99.90;;;;;;5032820;28;20033;-94
2023/10/15 02:58:44;;;;;;;2.47;0.90;;;10.90;99.90;;;;;;5055363;28;20116;-95
2023/10/15 03:03:56;;;;;;;2.10;0.65;;;9.80;99.90;;;;;;5066591;28;20036;-95
2023/10/15 03:06:41;;;;;;;2.83;0.68;;;9.90;99.90;;;;;;5075215;28;20037;-93
2023/10/15 03:09:11;;;;;;;0.88;0.50;;;11.00;99.90;;;;;;5051420;28;20021;-95
2023/10/15 03:11:38;;;;;;;2.03;0.85;;;10.80;99.90;;;;;;5085343;28;20044;-94
2023/10/15 03:14:21;;;;;;;3.25;0.68;;;9.60;99.90;;;;;;5071527;28;20071;-95
2023/10/15 03:17:12;;;;;;;2.00;0.60;;;10.20;99.90;;;;;;5065258;28;20045;-94
2023/10/15 03:19:38;;;;;;;2.55;1.00;;;9.80;99.90;;;;;;5064655;28;20021;-94
2023/10/15 03:22:15;;;;;;;3.97;0.68;;;8.80;99.90;;;;;;5074645;28;20068;-94
2023/10/15 03:24:44;;;;;;;4.78;0.70;;;9.70;99.90;;;;;;5094595;28;20072;-94
2023/10/15 03:27:28;;;;;;;0.93;0.70;;;11.00;99.90;;;;;;5092504;28;20088;-94
2023/10/15 03:30:03;;;;;;;4.82;0.60;;;10.00;99.90;;;;;;5090800;28;20024;-93
2023/10/15 03:32:37;;;;;;;1.70;0.50;;;9.40;99.90;;;;;;5098656;28;20012;-95
2023/10/15 03:38:09;;;;;;;3.22;0.73;;;9.50;99.90;;;;;;5052416;28;20521;-95
2023/10/15 03:40:44;;;;;;;1.90;0.55;;;9.50;99.90;;;;;;5087148;28;20029;-95
2023/10/15 03:43:34;;;;;;;1.25;0.60;;;9.60;99.90;;;;;;5080984;28;20036;-95
2023/10/15 03:46:16;;;;;;;3.03;0.80;;;9.80;99.90;;;;;;5060645;28;20060;-95
2023/10/15 03:48:47;;;;;;;1.23;0.40;;;9.90;99.90;;;;;;5067368;28;20024;-93
2023/10/15 03:51:29;;;;;;;1.48;0.50;;;11.20;99.90;;;;;;5082501;28;20036;-94
2023/10/15 03:54:06;;;;;;;4.38;0.73;;;9.90;99.90;;;;;;5081358;28;20083;-94
2023/10/15 03:56:46;;;;;;;3.95;0.60;;;10.50;99.90;;;;;;5076961;28;20485;-94
2023/10/15 03:59:16;;;;;;;2.65;0.77;;;10.70;99.90;;;;;;5082229;28;20028;-95
2023/10/15 04:01:56;;;;;;;0.95;0.57;;;10.50;99.90;;;;;;5078185;28;20032;-95
2023/10/15 04:04:22;;;;;;;2.88;0.70;;;10.40;99.90;;;;;;5071984;28;20031;-94
2023/10/15 04:07:27;;;;;;;5.20;1.05;;;10.40;99.90;;;;;;5075758;28;20033;-95
2023/10/15 04:10:08;;;;;;;1.50;0.50;;;10.00;99.90;;;;;;5075647;28;20032;-93
2023/10/15 04:12:40;;;;;;;2.13;0.60;;;9.90;99.90;;;;;;5056649;28;20025;-94
2023/10/15 04:15:14;;;;;;;1.70;0.65;;;11.20;99.90;;;;;;5059654;28;20028;-93
2023/10/15 04:17:42;;;;;;;1.70;0.65;;;9.80;99.90;;;;;;5053018;28;20094;-95
2023/10/15 04:20:16;;;;;;;0.88;0.65;;;9.80;99.90;;;;;;5060975;28;20030;-95
2023/10/15 04:22:51;;;;;;;2.55;0.73;;;9.50;99.90;;;;;;5065380;28;20024;-95
2023/10/15 04:25:25;;;;;;;1.73;0.57;;;9.80;99.90;;;;;;5074671;28;20036;-95
2023/10/15 04:30:50;;;;;;;3.05;0.80;;;9.50;99.90;;;;;;5092953;28;20031;-93
2023/10/15 04:33:18;;;;;;;1.30;0.63;;;9.90;99.90;;;;;;5096461;28;20472;-94
2023/10/15 04:35:51;;;;;;;3.60;1.00;;;10.90;99.90;;;;;;5074363;28;20025;-94
2023/10/15 04:38:22;;;;;;;4.57;0.70;;;10.10;99.90;;;;;;5068229;28;20029;-94
2023/10/15 04:43:46;;;;;;;0.77;0.50;;;9.70;99.90;;;;;;5084242;28;20123;-94
2023/10/15 04:46:17;;;;;;;2.35;0.40;;;11.60;99.90;;;;;;5078716;28;20534;-95
2023/10/15 04:48:45;;;;;;;2.65;0.60;;;10.40;99.90;;;;;;5083651;28;20027;-94
2023/10/15 04:54:25;;;;;;;1.45;0.70;;;10.80;99.90;;;;;;5077907;28;20047;-94
2023/10/15 04:57:16;;;;;;;3.20;0.80;;;9.90;99.90;;;;;;5092789;22;20060;-93
2023/10/15 04:59:42;;;;;;;3.15;0.55;;;11.10;99.90;;;;;;5068807;28;20036;-94
2023/10/15 05:02:20;;;;;;;1.90;0.65;;;10.80;99.90;;;;;;5068369;28;20029;-93
2023/10/15 05:05:11;;;;;;;1.70;0.82;;;10.90;99.90;;;;;;5068430;28;20021;-94
2023/10/15 05:07:49;;;;;;;1.38;0.80;;;9.90;99.90;;;;;;5057918;28;20056;-92
2023/10/15 05:10:15;;;;;;;2.13;0.90;;;11.10;99.90;;;;;;5057180;28;20116;-91
2023/10/15 05:13:34;;;;;;;2.08;0.93;;;10.00;99.90;;;;;;5055600;28;20057;-91
2023/10/15 05:16:00;;;;;;;1.60;0.80;;;9.80;99.90;;;;;;5066562;28;20031;-92
2023/10/15 05:18:53;;;;;;;2.70;0.65;;;11.00;99.90;;;;;;5065298;28;20119;-92
2023/10/15 05:21:29;;;;;;;2.33;0.80;;;9.10;99.90;;;;;;5057740;28;20029;-92
2023/10/15 05:24:50;;;;;;;;;;;;;;;;;;;;;
2023/10/15 05:28:00;;;;;;;4.80;0.90;;;8.50;99.90;;;;;;5036261;28;20037;-93
2023/10/15 05:30:44;;;;;;;1.77;0.68;;;10.00;99.90;;;;;;5066579;28;20059;-91
2023/10/15 05:33:10;;;;;;;4.95;1.27;;;10.90;99.90;;;;;;5070288;28;20027;-92
2023/10/15 05:35:56;;;;;;;4.97;0.90;;;10.50;99.90;;;;;;5068142;28;20029;-94
2023/10/15 05:38:22;;;;;;;2.75;0.75;;;11.10;99.90;;;;;;5059663;28;20026;-92
2023/10/15 05:40:49;;;;;;;4.88;1.15;;;9.80;99.90;;;;;;5051899;28;20051;-94
2023/10/15 05:43:23;;;;;;;6.30;1.00;;;10.10;99.90;;;;;;5058247;28;20029;-94
2023/10/15 05:46:08;;;;;;;2.75;1.30;;;9.80;99.90;;;;;;5057203;28;20816;-93
2023/10/15 05:48:55;;;;;;;2.90;1.25;;;10.10;99.90;;;;;;5056839;28;20469;-93
2023/10/15 05:52:12;;;;;;;3.83;1.10;;;10.10;99.90;;;;;;5056321;28;20032;-93
2023/10/15 05:54:53;;;;;;;1.95;0.88;;;10.00;99.90;;;;;;5052151;28;20086;-93
2023/10/15 06:02:50;;;;;;;2.47;0.73;;;9.90;99.90;;;;;;5044251;28;20041;-95
2023/10/15 06:05:16;;;;;;;8.85;1.17;;;9.70;99.90;;;;;;5046963;28;20033;-94
2023/10/15 06:07:59;;;;;;;5.18;0.90;;;10.90;99.90;;;;;;5042611;28;20025;-94
2023/10/15 06:10:29;;;;;;;6.90;1.27;;;10.00;99.90;;;;;;5058783;28;20028;-93
2023/10/15 06:13:16;;;;;;;5.27;1.00;;;9.70;99.90;;;;;;5060887;28;20025;-93
2023/10/15 06:15:42;;;;;;;4.65;1.42;;;9.80;99.90;;;;;;5060554;28;20271;-93
2023/10/15 06:18:30;;;;;;;11.13;1.65;;;9.60;99.90;;;;;;5064178;28;20028;-94
2023/10/15 06:20:54;;;;;;;5.78;1.75;;;9.90;99.90;;;;;;5039444;28;20055;-92
2023/10/15 06:23:20;;;;;;;5.35;1.02;;;10.60;99.90;;;;;;5051783;28;20025;-93
2023/10/15 06:26:13;;;;;;;9.10;1.00;;;9.60;99.90;;;;;;5039257;28;20029;-93
2023/10/15 06:28:39;;;;;;;4.65;1.10;;;8.60;99.90;;;;;;5037182;28;20093;-92
2023/10/15 06:31:28;;;;;;;3.78;0.80;;;8.40;99.90;;;;;;5061735;28;20021;-93
2023/10/15 06:33:55;;;;;;;1.77;1.10;;;9.60;99.90;;;;;;5057139;28;20029;-93
2023/10/15 06:36:47;;;;;;;4.35;1.17;;;9.50;99.90;;;;;;5056047;28;20078;-92
2023/10/15 06:39:13;;;;;;;3.35;0.70;;;10.40;99.90;;;;;;5053722;28;20032;-93
2023/10/15 06:42:02;;;;;;;3.75;0.60;;;10.80;99.90;;;;;;5055758;28;20029;-92
2023/10/15 06:44:28;;;;;;;1.92;0.73;;;9.50;99.90;;;;;;5054739;28;20029;-92
2023/10/15 06:47:18;;;;;;;4.65;1.05;;;10.70;99.90;;;;;;5054538;28;20082;-94
2023/10/15 06:49:44;;;;;;;1.45;0.65;;;9.60;99.90;;;;;;5034882;28;20499;-91
2023/10/15 06:52:20;;;;;;;4.18;1.00;;;10.80;99.90;;;;;;5036825;28;20033;-94
2023/10/15 06:54:47;;;;;;;2.75;0.70;;;10.10;99.90;;;;;;5040498;28;20028;-94
2023/10/15 06:57:32;;;;;;;4.07;0.85;;;9.30;99.90;;;;;;4988763;28;20049;-94
2023/10/15 06:59:58;;;;;;;3.67;1.63;;;10.20;99.90;;;;;;5037659;28;20484;-94
2023/10/15 07:02:24;;;;;;;2.63;1.00;;;9.50;99.90;;;;;;5039378;28;20033;-93
2023/10/15 07:05:04;;;;;;;4.65;0.75;;;10.80;99.90;;;;;;5040109;28;20032;-93
2023/10/15 07:07:30;;;;;;;2.30;0.90;;;9.60;99.90;;;;;;5047623;28;20044;-91
2023/10/15 07:10:06;;;;;;;2.78;0.85;;;10.90;99.90;;;;;;5184480;22;20044;-94
2023/10/15 07:12:55;;;;;;;7.07;1.15;;;9.80;99.90;;;;;;5073003;28;20094;-92
2023/10/15 07:15:29;;;;;;;4.25;1.27;;;9.90;99.90;;;;;;5726719;22;20060;-90
2023/10/15 07:17:55;;;;;;;2.45;1.33;;;10.30;99.90;;;;;;5067124;28;20040;-93
2023/10/15 07:20:43;;;;;;;5.03;1.55;;;11.10;99.90;;;;;;5063815;28;20112;-92
2023/10/15 07:23:21;;;;;;;4.90;1.83;;;10.10;99.90;;;;;;5065836;28;20020;-91
2023/10/15 07:25:46;;;;;;;3.67;1.95;;;11.10;99.90;;;;;;5068019;28;20081;-93
2023/10/15 07:28:12;;;;;;;4.72;1.63;;;11.30;99.90;;;;;;5086914;28;20029;-91
2023/10/15 07:30:56;;;;;;;5.35;1.73;;;11.20;99.90;;;;;;5070186;28;20063;-91
2023/10/15 07:33:21;;;;;;;7.60;1.52;;;10.70;99.90;;;;;;5073495;28;20020;-91
2023/10/15 07:35:48;;;;;;;6.18;1.50;;;10.20;99.90;;;;;;5084220;28;20025;-90
2023/10/15 07:38:14;;;;;;;6.32;1.38;;;10.20;99.90;;;;;;5081403;28;20097;-92
2023/10/15 07:40:40;;;;;;;13.05;2.67;;;10.10;99.90;;;;;;5091300;28;20058;-86
2023/10/15 07:43:08;;;;;;;7.93;1.48;;;10.90;99.90;;;;;;5064387;28;20469;-87
2023/10/15 07:45:35;;;;;;;4.18;1.40;;;10.10;99.90;;;;;;5075008;28;20086;-91
2023/10/15 07:48:19;;;;;;;9.73;1.77;;;10.80;99.90;;;;;;5068431;28;20058;-91
2023/10/15 07:50:45;;;;;;;6.22;1.55;;;9.90;99.90;;;;;;5074132;28;20032;-90
2023/10/15 07:53:12;;;;;;;9.27;1.75;;;10.00;99.90;;;;;;5071251;28;20036;-90
2023/10/15 07:55:37;;;;;;;4.65;1.25;;;9.90;99.90;;;;;;5057136;28;20021;-90
2023/10/15 07:58:03;;;;;;;9.90;1.83;;;9.90;99.90;;;;;;5073464;28;20036;-91
2023/10/15 08:00:35;;;;;;;3.35;0.80;;;9.90;99.90;;;;;;5073581;28;20017;-89
2023/10/15 08:03:01;;;;;;;6.68;1.40;;;9.80;99.90;;;;;;5073499;28;20077;-92
2023/10/15 08:05:31;;;;;;;6.47;1.70;;;9.80;99.90;;;;;;5075551;28;20120;-89
2023/10/15 08:07:57;;;;;;;8.10;1.20;;;9.70;99.90;;;;;;5068957;28;20079;-89
2023/10/15 08:10:24;;;;;;;7.82;1.48;;;9.70;99.90;;;;;;5056826;28;20044;-89
2023/10/15 08:12:51;;;;;;;6.57;1.33;;;9.70;99.90;;;;;;5070896;28;20059;-92
2023/10/15 08:15:18;;;;;;;14.80;1.88;;;9.70;99.90;;;;;;5072111;28;20040;-93
2023/10/15 08:17:44;;;;;;;6.20;0.90;;;9.60;99.90;;;;;;5070677;28;20124;-92
2023/10/15 08:20:09;;;;;;;4.25;1.00;;;9.70;99.90;;;;;;5067459;28;20028;-89
2023/10/15 08:22:41;;;;;;;3.88;0.98;;;9.70;99.90;;;;;;5061408;28;20028;-86
2023/10/15 08:25:14;;;;;;;5.45;1.75;;;9.70;99.90;;;;;;5065660;28;20031;-86
2023/10/15 08:27:44;;;;;;;4.38;0.95;;;9.80;99.90;;;;;;5070880;28;20036;-89
2023/10/15 08:30:12;;;;;;;2.53;0.93;;;10.30;99.90;;;;;;5073808;28;20044;-89
2023/10/15 08:32:39;;;;;;;4.20;0.98;;;9.90;99.90;;;;;;5063162;28;20036;-91
2023/10/15 08:35:05;;;;;;;5.47;1.02;;;9.90;99.90;;;;;;5065824;28;20025;-87
2023/10/15 08:37:35;;;;;;;4.63;1.02;;;10.00;99.90;;;;;;5058700;28;20016;-89
2023/10/15 08:40:10;;;;;;;4.70;1.23;;;9.90;99.90;;;;;;5067381;28;20419;-89
2023/10/15 08:42:42;;;;;;;2.67;1.30;;;10.10;99.90;;;;;;5067487;28;20021;-83
2023/10/15 08:45:25;;;;;;;7.63;3.60;;;10.20;99.90;;;;;;5058364;28;20536;-93
2023/10/15 08:48:11;;;;;;;10.55;3.15;;;11.50;99.90;;;;;;5075496;28;20020;-94
2023/10/15 08:50:37;;;;;;;7.90;2.67;;;10.90;99.90;;;;;;5071967;28;20246;-93
2023/10/15 08:53:16;;;;;;;6.20;1.40;;;10.10;99.90;;;;;;5075682;28;20073;-93
2023/10/15 08:55:57;;;;;;;6.38;1.10;;;11.70;99.90;;;;;;5084022;28;20120;-92
2023/10/15 08:58:25;;;;;;;2.25;0.90;;;11.30;99.90;;;;;;5063920;28;20024;-93
2023/10/15 09:00:53;;;;;;;7.32;1.55;;;10.60;99.90;;;;;;5069516;28;20044;-90
2023/10/15 09:03:23;;;;;;;3.40;1.20;;;11.10;99.90;;;;;;5058885;28;20464;-87
2023/10/15 09:05:52;;;;;;;5.57;1.30;;;10.10;99.90;;;;;;5065440;28;20036;-88
2023/10/15 09:08:35;;;;;;;2.67;1.00;;;10.20;99.90;;;;;;5060631;28;20116;-89
2023/10/15 09:11:27;;;;;;;5.95;1.38;;;11.50;99.90;;;;;;5068929;28;20024;-90
2023/10/15 09:13:58;;;;;;;4.55;1.50;;;10.60;99.90;;;;;;5059839;28;20029;-92
2023/10/15 09:16:28;;;;;;;6.28;1.40;;;10.60;99.90;;;;;;5056711;28;20052;-93
2023/10/15 09:19:12;;;;;;;3.88;1.13;;;10.10;99.90;;;;;;5070553;28;20472;-93
2023/10/15 09:21:37;;;;;;;9.15;1.20;;;11.20;99.90;;;;;;5057140;28;20021;-92
2023/10/15 09:24:07;;;;;;;5.63;1.73;;;10.80;99.90;;;;;;5069167;28;20556;-94
2023/10/15 09:26:38;;;;;;;7.07;0.85;;;10.00;99.90;;;;;;5085176;28;20033;-92
2023/10/15 09:29:19;;;;;;;4.25;0.75;;;11.10;99.90;;;;;;5066706;28;20025;-92
2023/10/15 09:31:49;;;;;;;6.72;1.20;;;11.10;99.90;;;;;;5075126;28;20376;-93
2023/10/15 09:34:26;;;;;;;3.17;0.73;;;9.80;99.90;;;;;;5063425;28;20025;-92
2023/10/15 09:36:58;;;;;;;2.92;0.60;;;10.90;99.90;;;;;;5076869;28;20040;-93
2023/10/15 09:39:28;;;;;;;7.53;1.10;;;10.60;99.90;;;;;;5097235;28;20035;-93
2023/10/15 09:42:06;;;;;;;4.03;0.85;;;10.30;99.90;;;;;;5098623;28;20017;-91
2023/10/15 09:44:38;;;;;;;4.03;1.00;;;10.20;99.90;;;;;;5082703;28;20032;-92
2023/10/15 09:47:05;;;;;;;3.30;0.57;;;11.40;99.90;;;;;;5077612;28;20484;-92
2023/10/15 09:49:41;;;;;;;3.42;0.82;;;10.10;99.90;;;;;;5075781;28;20063;-92
2023/10/15 09:52:10;;;;;;;4.55;0.93;;;11.10;99.90;;;;;;5076438;28;20052;-92
2023/10/15 09:54:37;;;;;;;3.17;1.00;;;11.60;99.90;;;;;;5069478;28;20024;-93
2023/10/15 09:57:21;;;;;;;6.28;1.48;;;11.60;99.90;;;;;;5041338;28;20036;-93
2023/10/15 09:59:53;;;;;;;5.00;1.23;;;12.00;99.90;;;;;;5073995;28;20025;-94
2023/10/15 10:02:41;;;;;;;4.10;0.98;;;11.70;99.90;;;;;;5071165;28;20540;-93
2023/10/15 10:05:49;;;;;;;2.03;0.63;;;11.60;99.90;;;;;;5075366;28;20116;-92
2023/10/15 10:08:39;;;;;;;4.90;1.30;;;11.60;99.90;;;;;;5077506;28;20044;-94
2023/10/15 10:11:46;;;;;;;3.65;0.95;;;10.40;99.90;;;;;;5077037;28;20024;-92
2023/10/15 10:14:38;;;;;;;2.65;0.82;;;11.20;99.90;;;;;;5060186;28;20116;-93
2023/10/15 10:17:26;;;;;;;4.60;1.48;;;11.00;99.90;;;;;;5075779;28;20090;-94
2023/10/15 10:19:53;;;;;;;2.08;0.73;;;9.40;99.90;;;;;;5036362;28;20048;-92
2023/10/15 10:22:34;;;;;;;2.67;0.85;;;11.80;99.90;;;;;;5091145;28;20024;-92
2023/10/15 10:25:03;;;;;;;2.97;1.35;;;10.70;99.90;;;;;;5089281;28;20036;-92
2023/10/15 10:28:28;;;;;;;2.92;0.80;;;10.50;99.90;;;;;;5062445;28;20040;-92
2023/10/15 10:31:07;;;;;;;3.05;0.90;;;10.60;99.90;;;;;;5043927;28;20048;-93
2023/10/15 10:33:45;;;;;;;2.25;1.00;;;11.80;99.90;;;;;;5073387;28;20062;-93
2023/10/15 10:36:17;;;;;;;2.38;0.82;;;11.70;99.90;;;;;;5075362;28;20021;-93
2023/10/15 10:39:42;;;;;;;2.42;0.75;;;10.60;99.90;;;;;;5074229;28;20043;-93
2023/10/15 10:42:26;;;;;;;3.35;1.38;;;10.40;99.90;;;;;;5075872;28;20028;-93
2023/10/15 10:45:12;;;;;;;3.13;1.10;;;11.70;99.90;;;;;;5071923;28;20090;-93
2023/10/15 10:47:38;;;;;;;1.77;0.80;;;9.60;99.90;;;;;;5075406;28;20031;-93
2023/10/15 10:50:04;;;;;;;3.95;1.05;;;11.30;99.90;;;;;;5075581;28;20108;-94
2023/10/15 10:52:36;;;;;;;5.53;1.00;;;10.80;99.90;;;;;;5052077;28;20048;-93
2023/10/15 10:55:53;;;;;;;4.47;0.85;;;10.80;99.90;;;;;;5074291;28;20024;-93
2023/10/15 10:58:56;;;;;;;3.35;1.00;;;11.00;99.90;;;;;;5053004;28;20162;-93
2023/10/15 11:01:22;;;;;;;6.10;1.48;;;10.80;99.90;;;;;;5076924;28;20110;-92
2023/10/15 11:03:56;;;;;;;3.92;1.42;;;10.40;99.90;;;;;;5051343;28;20028;-93
2023/10/15 11:06:42;;;;;;;6.65;1.30;;;10.50;99.90;;;;;;5068500;28;20033;-93
2023/10/15 11:09:26;;;;;;;4.25;1.02;;;12.00;99.90;;;;;;5063154;28;20453;-94
2023/10/15 11:12:10;;;;;;;5.55;1.05;;;11.10;99.90;;;;;;5075771;28;20098;-92
2023/10/15 11:14:51;;;;;;;5.80;1.55;;;11.30;99.90;;;;;;5070279;28;20036;-93
2023/10/15 11:17:17;;;;;;;4.57;1.17;;;11.40;99.90;;;;;;5074644;28;20044;-93
2023/10/15 11:19:55;;;;;;;3.13;0.68;;;11.10;99.90;;;;;;5076673;28;20081;-93
2023/10/15 11:22:21;;;;;;;7.07;1.33;;;10.60;99.90;;;;;;5092622;28;20103;-93
2023/10/15 11:25:14;;;;;;;3.70;1.00;;;10.20;99.90;;;;;;5077844;28;20035;-94
2023/10/15 11:27:52;;;;;;;6.68;1.30;;;10.30;99.90;;;;;;5069525;28;20037;-94
2023/10/15 11:33:07;;;;;;;2.95;0.73;;;10.50;99.90;;;;;;5056148;28;20074;-94
2023/10/15 11:35:53;;;;;;;4.38;1.00;;;10.60;99.90;;;;;;5085135;28;20068;-93
2023/10/15 11:38:37;;;;;;;4.88;1.33;;;11.80;99.90;;;;;;5085255;28;20484;-93
2023/10/15 11:41:22;;;;;;;6.20;1.60;;;11.20;99.90;;;;;;5093687;28;20008;-93
2023/10/15 11:43:49;;;;;;;4.72;1.05;;;12.20;99.90;;;;;;5079222;28;20031;-95
2023/10/15 11:46:30;;;;;;;4.00;0.80;;;12.40;99.90;;;;;;5072405;28;20036;-93
2023/10/15 11:49:09;;;;;;;6.32;0.90;;;11.20;99.90;;;;;;5073488;28;20066;-93
2023/10/15 11:51:57;;;;;;;5.53;1.58;;;11.90;99.90;;;;;;5072392;28;20078;-93
2023/10/15 11:54:43;;;;;;;4.20;1.13;;;12.40;99.90;;;;;;5074179;28;20078;-93
2023/10/15 11:57:27;;;;;;;10.23;0.98;;;12.50;99.90;;;;;;5073218;28;20472;-93
2023/10/15 11:59:53;;;;;;;5.43;1.17;;;12.60;99.90;;;;;;5074835;28;20032;-93
2023/10/15 12:02:19;;;;;;;6.47;1.40;;;12.60;99.90;;;;;;5074813;28;20021;-94
2023/10/15 12:05:09;;;;;;;7.53;1.35;;;12.50;99.90;;;;;;5068089;28;20025;-94
2023/10/15 12:07:56;;;;;;;4.38;1.50;;;11.40;99.90;;;;;;5062427;28;20049;-94
2023/10/15 12:10:22;;;;;;;5.47;1.00;;;10.30;99.90;;;;;;5057817;28;20025;-95
2023/10/15 12:12:49;;;;;;;4.22;0.80;;;11.20;99.90;;;;;;5072978;28;20050;-94
2023/10/15 12:19:02;;;;;;;10.48;1.70;;;10.70;99.90;;;;;;5073104;28;20036;-94
2023/10/15 12:24:54;;;;;;;4.53;1.08;;;10.80;99.90;;;;;;5058304;28;20067;-93
2023/10/15 12:27:20;;;;;;;4.82;1.13;;;11.60;99.90;;;;;;5073284;28;20052;-93
2023/10/15 12:30:06;;;;;;;6.97;1.30;;;11.00;99.90;;;;;;5064561;28;20358;-94
2023/10/15 12:32:53;;;;;;;7.22;1.83;;;12.10;99.90;;;;;;5075201;28;20032;-93
2023/10/15 12:35:41;;;;;;;6.30;1.45;;;11.90;99.90;;;;;;5072924;28;20028;-93
2023/10/15 12:38:06;;;;;;;2.63;0.73;;;10.90;99.90;;;;;;5075402;28;20040;-92
2023/10/15 12:40:32;;;;;;;4.32;1.10;;;11.00;99.90;;;;;;5074952;28;20031;-93
2023/10/15 12:43:15;;;;;;;4.05;1.10;;;12.40;99.90;;;;;;5078052;28;20098;-93
2023/10/15 12:45:44;;;;;;;5.38;1.20;;;11.60;99.90;;;;;;5077127;28;20119;-93
2023/10/15 12:48:29;;;;;;;5.53;1.30;;;12.10;99.90;;;;;;5042525;28;20042;-94
2023/10/15 12:51:10;;;;;;;5.90;1.40;;;11.20;99.90;;;;;;5083309;28;20016;-92
2023/10/15 12:53:36;;;;;;;3.33;1.23;;;11.00;99.90;;;;;;5077693;28;20082;-93
2023/10/15 12:56:08;;;;;;;5.28;1.13;;;11.30;99.90;;;;;;5072410;28;20025;-93
2023/10/15 12:58:40;;;;;;;7.03;1.13;;;12.50;99.90;;;;;;5085282;28;20028;-92
2023/10/15 13:01:20;;;;;;;4.32;0.90;;;12.70;99.90;;;;;;5085500;28;20032;-92
2023/10/15 13:04:01;;;;;;;7.65;1.23;;;11.60;99.90;;;;;;5081106;28;20039;-93
2023/10/15 13:06:27;;;;;;;5.68;1.30;;;13.00;99.90;;;;;;5062624;28;20163;-92
2023/10/15 13:09:19;;;;;;;4.13;1.48;;;12.60;99.90;;;;;;5077809;28;20058;-94
2023/10/15 13:12:06;;;;;;;6.57;1.40;;;11.60;99.90;;;;;;5049732;28;20519;-94
2023/10/15 13:14:33;;;;;;;3.53;1.40;;;11.70;99.90;;;;;;5075338;28;20052;-94
2023/10/15 13:16:59;;;;;;;6.63;1.45;;;13.00;99.90;;;;;;5083688;28;20117;-93
2023/10/15 13:19:32;;;;;;;4.32;1.23;;;13.10;99.90;;;;;;5089485;28;20027;-94
2023/10/15 13:22:04;;;;;;;4.80;1.23;;;13.10;99.90;;;;;;5078969;28;20032;-93
2023/10/15 13:24:43;;;;;;;2.75;0.85;;;11.70;99.90;;;;;;5077219;28;20020;-93
2023/10/15 13:27:08;;;;;;;4.35;0.90;;;12.50;99.90;;;;;;5075725;28;20084;-93
2023/10/15 13:29:34;;;;;;;4.18;1.17;;;13.40;99.90;;;;;;5077707;28;20135;-93
2023/10/15 13:32:28;;;;;;;5.57;0.95;;;13.50;99.90;;;;;;5072397;28;20028;-93
2023/10/15 13:34:54;;;;;;;5.00;0.82;;;12.10;99.90;;;;;;5087546;28;20012;-94
2023/10/15 13:37:32;;;;;;;3.28;1.00;;;11.90;99.90;;;;;;5091212;28;20036;-93
2023/10/15 13:40:11;;;;;;;4.50;0.90;;;12.80;99.90;;;;;;5092240;28;20025;-93
2023/10/15 13:42:47;;;;;;;3.85;0.63;;;11.50;99.90;;;;;;5078633;28;20104;-93
2023/10/15 13:45:14;;;;;;;1.98;0.57;;;11.20;99.90;;;;;;5075270;28;20024;-93
2023/10/15 13:47:40;;;;;;;4.03;0.70;;;11.40;99.90;;;;;;5077496;28;20031;-93
2023/10/15 13:50:09;;;;;;;3.33;0.88;;;12.80;99.90;;;;;;5075923;28;20435;-92
2023/10/15 13:52:37;;;;;;;4.15;0.70;;;11.60;99.90;;;;;;5050832;28;20036;-92
2023/10/15 13:55:27;;;;;;;2.47;0.85;;;12.70;99.90;;;;;;5071760;28;20096;-93
2023/10/15 13:57:53;;;;;;;2.50;0.70;;;11.70;99.90;;;;;;5076522;28;20033;-94
2023/10/15 14:00:19;;;;;;;3.33;0.52;;;12.70;99.90;;;;;;5074196;28;20556;-92
2023/10/15 14:02:47;;;;;;;4.85;0.63;;;13.20;99.90;;;;;;5071651;28;20052;-92
2023/10/15 14:05:18;;;;;;;4.13;1.13;;;13.20;99.90;;;;;;5065794;28;20088;-93
2023/10/15 14:07:47;;;;;;;;;;;13.30;99.90;;;;;;5077553;28;20094;-93
2023/10/15 14:10:15;;;;;;;2.80;0.98;;;12.90;99.90;;;;;;5071299;28;19959;-91
2023/10/15 14:12:41;;;;;;;2.10;1.10;;;13.50;99.90;;;;;;5077329;28;20025;-92
2023/10/15 14:15:18;;;;;;;4.82;0.77;;;12.70;99.90;;;;;;5075600;28;20021;-92
2023/10/15 14:18:05;;;;;;;7.72;1.27;;;13.40;99.90;;;;;;5074711;28;20040;-92
2023/10/15 14:20:37;;;;;;;2.33;0.68;;;12.40;99.90;;;;;;5077685;28;20032;-93